sensor_id;sensor_type;location;lat;lon;timestamp;P1;durP1;ratioP1;P2;durP2;ratioP2
14923;SDS011;7554;43.600;1.480;2022-07-12T00:02:23;5.60;;;2.00;;
14923;SDS011;7554;43.600;1.480;2022-07-12T00:04:51;5.93;;;1.90;;
14923;SDS011;7554;43.600;1.480;2022-07-12T00:07:20;5.47;;;2.30;;
14923;SDS011;7554;43.600;1.480;2022-07-12T00:09:47;4.10;;;2.10;;
14923;SDS011;7554;43.600;1.480;2022-07-12T00:12:15;3.85;;;1.90;;
14923;SDS011;7554;43.600;1.480;2022-07-12T00:14:42;5.33;;;1.97;;
14923;SDS011;7554;43.600;1.480;2022-07-12T00:17:09;4.07;;;2.00;;
14923;SDS011;7554;43.600;1.480;2022-07-12T00:19:37;3.13;;;1.90;;
14923;SDS011;7554;43.600;1.480;2022-07-12T00:22:04;5.90;;;2.20;;
14923;SDS011;7554;43.600;1.480;2022-07-12T00:24:33;7.17;;;2.27;;
14923;SDS011;7554;43.600;1.480;2022-07-12T00:27:00;3.27;;;2.00;;
14923;SDS011;7554;43.600;1.480;2022-07-12T00:29:28;5.10;;;2.20;;
14923;SDS011;7554;43.600;1.480;2022-07-12T00:31:55;4.50;;;2.23;;
14923;SDS011;7554;43.600;1.480;2022-07-12T00:34:22;4.50;;;2.00;;
14923;SDS011;7554;43.600;1.480;2022-07-12T00:36:50;5.00;;;2.20;;
14923;SDS011;7554;43.600;1.480;2022-07-12T00:39:17;5.63;;;2.00;;
14923;SDS011;7554;43.600;1.480;2022-07-12T00:41:48;3.20;;;2.17;;
14923;SDS011;7554;43.600;1.480;2022-07-12T00:44:16;3.17;;;1.90;;
14923;SDS011;7554;43.600;1.480;2022-07-12T00:46:43;4.43;;;1.93;;
14923;SDS011;7554;43.600;1.480;2022-07-12T00:49:12;2.63;;;2.00;;
14923;SDS011;7554;43.600;1.480;2022-07-12T00:51:40;3.57;;;2.00;;
14923;SDS011;7554;43.600;1.480;2022-07-12T00:54:08;3.97;;;1.87;;
14923;SDS011;7554;43.600;1.480;2022-07-12T00:56:36;3.00;;;2.17;;
14923;SDS011;7554;43.600;1.480;2022-07-12T00:59:05;3.87;;;1.93;;
14923;SDS011;7554;43.600;1.480;2022-07-12T01:01:33;7.03;;;2.10;;
14923;SDS011;7554;43.600;1.480;2022-07-12T01:04:00;5.20;;;1.90;;
14923;SDS011;7554;43.600;1.480;2022-07-12T01:06:28;4.80;;;1.93;;
14923;SDS011;7554;43.600;1.480;2022-07-12T01:08:57;4.33;;;2.30;;
14923;SDS011;7554;43.600;1.480;2022-07-12T01:11:24;4.97;;;2.00;;
14923;SDS011;7554;43.600;1.480;2022-07-12T01:13:52;3.43;;;1.90;;
14923;SDS011;7554;43.600;1.480;2022-07-12T01:16:22;5.30;;;2.10;;
14923;SDS011;7554;43.600;1.480;2022-07-12T01:18:50;3.60;;;2.00;;
14923;SDS011;7554;43.600;1.480;2022-07-12T01:21:19;2.90;;;2.00;;
14923;SDS011;7554;43.600;1.480;2022-07-12T01:23:50;6.00;;;1.93;;
14923;SDS011;7554;43.600;1.480;2022-07-12T01:26:18;4.53;;;2.07;;
14923;SDS011;7554;43.600;1.480;2022-07-12T01:28:46;4.57;;;2.13;;
14923;SDS011;7554;43.600;1.480;2022-07-12T01:31:14;4.47;;;2.20;;
14923;SDS011;7554;43.600;1.480;2022-07-12T01:33:41;3.83;;;2.30;;
14923;SDS011;7554;43.600;1.480;2022-07-12T01:36:09;5.27;;;2.07;;
14923;SDS011;7554;43.600;1.480;2022-07-12T01:38:36;6.03;;;2.23;;
14923;SDS011;7554;43.600;1.480;2022-07-12T01:41:05;3.93;;;2.10;;
14923;SDS011;7554;43.600;1.480;2022-07-12T01:43:33;3.13;;;1.83;;
14923;SDS011;7554;43.600;1.480;2022-07-12T01:46:01;4.57;;;2.17;;
14923;SDS011;7554;43.600;1.480;2022-07-12T01:48:28;4.53;;;2.60;;
14923;SDS011;7554;43.600;1.480;2022-07-12T01:50:55;5.93;;;2.00;;
14923;SDS011;7554;43.600;1.480;2022-07-12T01:53:23;8.10;;;2.40;;
14923;SDS011;7554;43.600;1.480;2022-07-12T01:55:50;4.97;;;2.07;;
14923;SDS011;7554;43.600;1.480;2022-07-12T01:58:19;3.33;;;2.10;;
14923;SDS011;7554;43.600;1.480;2022-07-12T02:00:47;4.63;;;2.27;;
14923;SDS011;7554;43.600;1.480;2022-07-12T02:03:17;4.13;;;2.50;;
14923;SDS011;7554;43.600;1.480;2022-07-12T02:05:45;6.23;;;2.40;;
14923;SDS011;7554;43.600;1.480;2022-07-12T02:08:12;4.13;;;2.30;;
14923;SDS011;7554;43.600;1.480;2022-07-12T02:10:40;3.63;;;1.90;;
14923;SDS011;7554;43.600;1.480;2022-07-12T02:13:08;8.27;;;2.20;;
14923;SDS011;7554;43.600;1.480;2022-07-12T02:15:37;4.37;;;2.50;;
14923;SDS011;7554;43.600;1.480;2022-07-12T02:18:05;3.73;;;2.30;;
14923;SDS011;7554;43.600;1.480;2022-07-12T02:20:32;7.50;;;2.33;;
14923;SDS011;7554;43.600;1.480;2022-07-12T02:23:00;4.47;;;2.40;;
14923;SDS011;7554;43.600;1.480;2022-07-12T02:25:27;2.50;;;2.30;;
14923;SDS011;7554;43.600;1.480;2022-07-12T02:27:54;2.93;;;2.23;;
14923;SDS011;7554;43.600;1.480;2022-07-12T02:30:22;7.40;;;2.40;;
14923;SDS011;7554;43.600;1.480;2022-07-12T02:32:51;5.30;;;2.33;;
14923;SDS011;7554;43.600;1.480;2022-07-12T02:35:19;4.50;;;2.53;;
14923;SDS011;7554;43.600;1.480;2022-07-12T02:37:47;3.30;;;2.20;;
14923;SDS011;7554;43.600;1.480;2022-07-12T02:40:14;4.13;;;2.67;;
14923;SDS011;7554;43.600;1.480;2022-07-12T02:42:59;3.80;;;2.33;;
14923;SDS011;7554;43.600;1.480;2022-07-12T02:45:26;3.00;;;2.40;;
14923;SDS011;7554;43.600;1.480;2022-07-12T02:47:55;5.50;;;2.50;;
14923;SDS011;7554;43.600;1.480;2022-07-12T02:50:22;3.27;;;2.53;;
14923;SDS011;7554;43.600;1.480;2022-07-12T02:52:49;4.07;;;2.60;;
14923;SDS011;7554;43.600;1.480;2022-07-12T02:55:17;5.17;;;3.03;;
14923;SDS011;7554;43.600;1.480;2022-07-12T02:57:44;3.57;;;2.73;;
14923;SDS011;7554;43.600;1.480;2022-07-12T03:00:12;5.80;;;2.80;;
14923;SDS011;7554;43.600;1.480;2022-07-12T03:02:40;3.73;;;2.60;;
14923;SDS011;7554;43.600;1.480;2022-07-12T03:05:09;3.03;;;2.37;;
14923;SDS011;7554;43.600;1.480;2022-07-12T03:07:36;4.60;;;2.40;;
14923;SDS011;7554;43.600;1.480;2022-07-12T03:10:04;6.47;;;2.50;;
14923;SDS011;7554;43.600;1.480;2022-07-12T03:12:32;3.23;;;2.60;;
14923;SDS011;7554;43.600;1.480;2022-07-12T03:14:59;3.43;;;2.50;;
14923;SDS011;7554;43.600;1.480;2022-07-12T03:17:27;6.47;;;2.63;;
14923;SDS011;7554;43.600;1.480;2022-07-12T03:19:54;5.43;;;2.70;;
14923;SDS011;7554;43.600;1.480;2022-07-12T03:22:23;3.20;;;2.63;;
14923;SDS011;7554;43.600;1.480;2022-07-12T03:24:51;5.83;;;2.90;;
14923;SDS011;7554;43.600;1.480;2022-07-12T03:27:19;4.77;;;2.30;;
14923;SDS011;7554;43.600;1.480;2022-07-12T03:29:46;5.10;;;3.10;;
14923;SDS011;7554;43.600;1.480;2022-07-12T03:32:13;7.30;;;2.83;;
14923;SDS011;7554;43.600;1.480;2022-07-12T03:34:41;6.80;;;2.93;;
14923;SDS011;7554;43.600;1.480;2022-07-12T03:37:08;6.03;;;2.60;;
14923;SDS011;7554;43.600;1.480;2022-07-12T03:39:37;5.27;;;3.13;;
14923;SDS011;7554;43.600;1.480;2022-07-12T03:42:04;4.77;;;2.90;;
14923;SDS011;7554;43.600;1.480;2022-07-12T03:44:31;5.43;;;3.00;;
14923;SDS011;7554;43.600;1.480;2022-07-12T03:46:59;5.03;;;2.90;;
14923;SDS011;7554;43.600;1.480;2022-07-12T03:49:27;4.67;;;2.63;;
14923;SDS011;7554;43.600;1.480;2022-07-12T03:51:54;3.53;;;2.97;;
14923;SDS011;7554;43.600;1.480;2022-07-12T03:54:21;5.50;;;2.90;;
14923;SDS011;7554;43.600;1.480;2022-07-12T03:56:50;4.67;;;2.90;;
14923;SDS011;7554;43.600;1.480;2022-07-12T03:59:35;6.40;;;3.27;;
14923;SDS011;7554;43.600;1.480;2022-07-12T04:02:03;4.03;;;2.90;;
14923;SDS011;7554;43.600;1.480;2022-07-12T04:04:30;4.30;;;2.97;;
14923;SDS011;7554;43.600;1.480;2022-07-12T04:06:57;9.93;;;3.20;;
14923;SDS011;7554;43.600;1.480;2022-07-12T04:09:25;4.13;;;3.00;;
14923;SDS011;7554;43.600;1.480;2022-07-12T04:11:54;5.07;;;3.53;;
14923;SDS011;7554;43.600;1.480;2022-07-12T04:14:21;6.77;;;3.40;;
14923;SDS011;7554;43.600;1.480;2022-07-12T04:16:48;7.67;;;3.10;;
14923;SDS011;7554;43.600;1.480;2022-07-12T04:19:16;6.10;;;3.40;;
14923;SDS011;7554;43.600;1.480;2022-07-12T04:21:43;4.87;;;3.33;;
14923;SDS011;7554;43.600;1.480;2022-07-12T04:24:10;5.47;;;2.70;;
14923;SDS011;7554;43.600;1.480;2022-07-12T04:26:38;7.73;;;2.80;;
14923;SDS011;7554;43.600;1.480;2022-07-12T04:29:07;3.77;;;2.80;;
14923;SDS011;7554;43.600;1.480;2022-07-12T04:31:34;7.53;;;3.20;;
14923;SDS011;7554;43.600;1.480;2022-07-12T04:34:02;7.27;;;3.20;;
14923;SDS011;7554;43.600;1.480;2022-07-12T04:36:29;6.70;;;2.90;;
14923;SDS011;7554;43.600;1.480;2022-07-12T04:38:58;4.07;;;2.77;;
14923;SDS011;7554;43.600;1.480;2022-07-12T04:41:25;6.93;;;3.00;;
14923;SDS011;7554;43.600;1.480;2022-07-12T04:43:52;7.93;;;3.00;;
14923;SDS011;7554;43.600;1.480;2022-07-12T04:46:21;6.63;;;2.87;;
14923;SDS011;7554;43.600;1.480;2022-07-12T04:48:49;7.47;;;2.63;;
14923;SDS011;7554;43.600;1.480;2022-07-12T04:51:16;4.67;;;3.00;;
14923;SDS011;7554;43.600;1.480;2022-07-12T04:53:43;4.63;;;2.77;;
14923;SDS011;7554;43.600;1.480;2022-07-12T04:56:11;4.40;;;2.60;;
14923;SDS011;7554;43.600;1.480;2022-07-12T04:58:38;13.90;;;2.50;;
14923;SDS011;7554;43.600;1.480;2022-07-12T05:01:05;3.50;;;2.33;;
14923;SDS011;7554;43.600;1.480;2022-07-12T05:03:34;3.73;;;2.00;;
14923;SDS011;7554;43.600;1.480;2022-07-12T05:06:02;4.20;;;2.37;;
14923;SDS011;7554;43.600;1.480;2022-07-12T05:08:29;5.63;;;2.67;;
14923;SDS011;7554;43.600;1.480;2022-07-12T05:10:57;4.00;;;2.30;;
14923;SDS011;7554;43.600;1.480;2022-07-12T05:13:24;5.10;;;2.72;;
14923;SDS011;7554;43.600;1.480;2022-07-12T05:15:51;5.85;;;2.30;;
14923;SDS011;7554;43.600;1.480;2022-07-12T05:18:19;4.15;;;2.33;;
14923;SDS011;7554;43.600;1.480;2022-07-12T05:20:48;3.75;;;2.28;;
14923;SDS011;7554;43.600;1.480;2022-07-12T05:23:15;4.45;;;2.53;;
14923;SDS011;7554;43.600;1.480;2022-07-12T05:25:43;4.20;;;1.90;;
14923;SDS011;7554;43.600;1.480;2022-07-12T05:28:11;5.68;;;2.15;;
14923;SDS011;7554;43.600;1.480;2022-07-12T05:30:39;6.88;;;2.40;;
14923;SDS011;7554;43.600;1.480;2022-07-12T05:33:07;6.13;;;2.28;;
14923;SDS011;7554;43.600;1.480;2022-07-12T05:35:34;4.35;;;2.35;;
14923;SDS011;7554;43.600;1.480;2022-07-12T05:38:03;6.50;;;2.30;;
14923;SDS011;7554;43.600;1.480;2022-07-12T05:40:31;14.70;;;10.15;;
14923;SDS011;7554;43.600;1.480;2022-07-12T05:42:58;15.00;;;11.75;;
14923;SDS011;7554;43.600;1.480;2022-07-12T05:45:25;3.10;;;2.10;;
14923;SDS011;7554;43.600;1.480;2022-07-12T05:47:53;3.65;;;2.20;;
14923;SDS011;7554;43.600;1.480;2022-07-12T05:50:20;4.13;;;2.20;;
14923;SDS011;7554;43.600;1.480;2022-07-12T05:52:47;4.50;;;2.13;;
14923;SDS011;7554;43.600;1.480;2022-07-12T05:55:33;7.60;;;2.17;;
14923;SDS011;7554;43.600;1.480;2022-07-12T05:58:01;5.50;;;2.25;;
14923;SDS011;7554;43.600;1.480;2022-07-12T06:00:29;4.93;;;1.98;;
14923;SDS011;7554;43.600;1.480;2022-07-12T06:02:57;10.15;;;2.50;;
14923;SDS011;7554;43.600;1.480;2022-07-12T06:05:25;8.52;;;2.20;;
14923;SDS011;7554;43.600;1.480;2022-07-12T06:07:52;7.82;;;2.20;;
14923;SDS011;7554;43.600;1.480;2022-07-12T06:10:20;6.50;;;2.20;;
14923;SDS011;7554;43.600;1.480;2022-07-12T06:12:49;3.38;;;2.03;;
14923;SDS011;7554;43.600;1.480;2022-07-12T06:15:16;6.30;;;1.90;;
14923;SDS011;7554;43.600;1.480;2022-07-12T06:17:44;3.30;;;2.00;;
14923;SDS011;7554;43.600;1.480;2022-07-12T06:20:13;9.10;;;2.05;;
14923;SDS011;7554;43.600;1.480;2022-07-12T06:22:40;10.35;;;2.55;;
14923;SDS011;7554;43.600;1.480;2022-07-12T06:25:08;5.07;;;1.83;;
14923;SDS011;7554;43.600;1.480;2022-07-12T06:27:36;6.72;;;1.83;;
14923;SDS011;7554;43.600;1.480;2022-07-12T06:30:06;4.43;;;2.40;;
14923;SDS011;7554;43.600;1.480;2022-07-12T06:32:34;3.75;;;1.80;;
14923;SDS011;7554;43.600;1.480;2022-07-12T06:35:02;4.47;;;2.15;;
14923;SDS011;7554;43.600;1.480;2022-07-12T06:37:30;7.63;;;2.00;;
14923;SDS011;7554;43.600;1.480;2022-07-12T06:39:57;3.78;;;2.17;;
14923;SDS011;7554;43.600;1.480;2022-07-12T06:42:24;2.00;;;1.70;;
14923;SDS011;7554;43.600;1.480;2022-07-12T06:44:52;4.35;;;1.73;;
14923;SDS011;7554;43.600;1.480;2022-07-12T06:47:21;3.42;;;2.00;;
14923;SDS011;7554;43.600;1.480;2022-07-12T06:49:49;5.68;;;2.00;;
14923;SDS011;7554;43.600;1.480;2022-07-12T06:52:16;4.40;;;2.10;;
14923;SDS011;7554;43.600;1.480;2022-07-12T06:54:44;9.13;;;2.30;;
14923;SDS011;7554;43.600;1.480;2022-07-12T06:57:11;4.25;;;1.98;;
14923;SDS011;7554;43.600;1.480;2022-07-12T06:59:39;5.18;;;1.90;;
14923;SDS011;7554;43.600;1.480;2022-07-12T07:02:06;3.38;;;1.65;;
14923;SDS011;7554;43.600;1.480;2022-07-12T07:04:35;3.13;;;1.70;;
14923;SDS011;7554;43.600;1.480;2022-07-12T07:07:03;4.07;;;1.90;;
14923;SDS011;7554;43.600;1.480;2022-07-12T07:09:30;3.55;;;2.03;;
14923;SDS011;7554;43.600;1.480;2022-07-12T07:11:59;2.85;;;1.88;;
14923;SDS011;7554;43.600;1.480;2022-07-12T07:14:27;3.13;;;2.00;;
14923;SDS011;7554;43.600;1.480;2022-07-12T07:16:54;4.53;;;1.80;;
14923;SDS011;7554;43.600;1.480;2022-07-12T07:19:22;4.32;;;1.60;;
14923;SDS011;7554;43.600;1.480;2022-07-12T07:21:52;5.55;;;1.80;;
14923;SDS011;7554;43.600;1.480;2022-07-12T07:24:20;4.00;;;1.75;;
14923;SDS011;7554;43.600;1.480;2022-07-12T07:26:47;3.58;;;1.70;;
14923;SDS011;7554;43.600;1.480;2022-07-12T07:29:15;4.05;;;1.65;;
14923;SDS011;7554;43.600;1.480;2022-07-12T07:32:00;2.45;;;1.60;;
14923;SDS011;7554;43.600;1.480;2022-07-12T07:34:27;4.45;;;1.48;;
14923;SDS011;7554;43.600;1.480;2022-07-12T07:36:56;4.63;;;1.70;;
14923;SDS011;7554;43.600;1.480;2022-07-12T07:39:24;4.72;;;1.58;;
14923;SDS011;7554;43.600;1.480;2022-07-12T07:41:51;2.90;;;1.40;;
14923;SDS011;7554;43.600;1.480;2022-07-12T07:44:19;5.72;;;1.60;;
14923;SDS011;7554;43.600;1.480;2022-07-12T07:46:46;2.00;;;1.50;;
14923;SDS011;7554;43.600;1.480;2022-07-12T07:49:14;2.40;;;1.42;;
14923;SDS011;7554;43.600;1.480;2022-07-12T07:51:41;5.97;;;2.05;;
14923;SDS011;7554;43.600;1.480;2022-07-12T07:54:10;4.32;;;1.55;;
14923;SDS011;7554;43.600;1.480;2022-07-12T07:56:37;2.60;;;1.42;;
14923;SDS011;7554;43.600;1.480;2022-07-12T07:59:04;2.20;;;1.40;;
14923;SDS011;7554;43.600;1.480;2022-07-12T08:01:33;3.55;;;1.40;;
14923;SDS011;7554;43.600;1.480;2022-07-12T08:04:10;3.95;;;1.50;;
14923;SDS011;7554;43.600;1.480;2022-07-12T08:06:38;2.85;;;1.50;;
14923;SDS011;7554;43.600;1.480;2022-07-12T08:09:06;3.40;;;1.30;;
14923;SDS011;7554;43.600;1.480;2022-07-12T08:11:36;1.98;;;1.30;;
14923;SDS011;7554;43.600;1.480;2022-07-12T08:14:04;5.07;;;1.60;;
14923;SDS011;7554;43.600;1.480;2022-07-12T08:16:32;3.28;;;1.20;;
14923;SDS011;7554;43.600;1.480;2022-07-12T08:18:59;3.17;;;1.17;;
14923;SDS011;7554;43.600;1.480;2022-07-12T08:21:27;7.43;;;1.55;;
14923;SDS011;7554;43.600;1.480;2022-07-12T08:23:54;3.80;;;1.60;;
14923;SDS011;7554;43.600;1.480;2022-07-12T08:26:22;2.33;;;1.15;;
14923;SDS011;7554;43.600;1.480;2022-07-12T08:28:51;2.42;;;1.35;;
14923;SDS011;7554;43.600;1.480;2022-07-12T08:31:19;6.72;;;1.58;;
14923;SDS011;7554;43.600;1.480;2022-07-12T08:33:47;4.57;;;1.17;;
14923;SDS011;7554;43.600;1.480;2022-07-12T08:36:14;3.22;;;1.50;;
14923;SDS011;7554;43.600;1.480;2022-07-12T08:38:41;4.72;;;1.30;;
14923;SDS011;7554;43.600;1.480;2022-07-12T08:41:11;2.45;;;1.38;;
14923;SDS011;7554;43.600;1.480;2022-07-12T08:43:39;8.90;;;1.50;;
14923;SDS011;7554;43.600;1.480;2022-07-12T08:46:09;4.05;;;1.27;;
14923;SDS011;7554;43.600;1.480;2022-07-12T08:48:38;3.38;;;1.25;;
14923;SDS011;7554;43.600;1.480;2022-07-12T08:51:06;5.07;;;1.50;;
14923;SDS011;7554;43.600;1.480;2022-07-12T08:53:35;2.72;;;1.30;;
14923;SDS011;7554;43.600;1.480;2022-07-12T08:56:03;5.03;;;1.30;;
14923;SDS011;7554;43.600;1.480;2022-07-12T08:58:31;2.55;;;1.30;;
14923;SDS011;7554;43.600;1.480;2022-07-12T09:00:59;4.22;;;1.60;;
14923;SDS011;7554;43.600;1.480;2022-07-12T09:03:28;6.38;;;1.33;;
14923;SDS011;7554;43.600;1.480;2022-07-12T09:05:56;3.55;;;1.60;;
14923;SDS011;7554;43.600;1.480;2022-07-12T09:08:25;3.97;;;1.45;;
14923;SDS011;7554;43.600;1.480;2022-07-12T09:10:55;3.63;;;1.40;;
14923;SDS011;7554;43.600;1.480;2022-07-12T09:16:14;2.38;;;1.40;;
14923;SDS011;7554;43.600;1.480;2022-07-12T09:18:44;4.22;;;1.40;;
14923;SDS011;7554;43.600;1.480;2022-07-12T09:21:25;4.07;;;1.20;;
14923;SDS011;7554;43.600;1.480;2022-07-12T09:23:54;3.80;;;1.52;;
14923;SDS011;7554;43.600;1.480;2022-07-12T09:26:22;1.83;;;1.20;;
14923;SDS011;7554;43.600;1.480;2022-07-12T09:28:50;4.32;;;1.30;;
14923;SDS011;7554;43.600;1.480;2022-07-12T09:31:18;6.25;;;1.50;;
14923;SDS011;7554;43.600;1.480;2022-07-12T09:36:58;4.05;;;1.50;;
14923;SDS011;7554;43.600;1.480;2022-07-12T09:39:25;4.63;;;1.50;;
14923;SDS011;7554;43.600;1.480;2022-07-12T09:41:54;5.60;;;1.48;;
14923;SDS011;7554;43.600;1.480;2022-07-12T09:44:22;3.30;;;1.60;;
14923;SDS011;7554;43.600;1.480;2022-07-12T09:46:51;2.25;;;1.38;;
14923;SDS011;7554;43.600;1.480;2022-07-12T09:49:21;2.60;;;1.50;;
14923;SDS011;7554;43.600;1.480;2022-07-12T09:51:48;7.38;;;1.52;;
14923;SDS011;7554;43.600;1.480;2022-07-12T09:54:20;3.92;;;1.38;;
14923;SDS011;7554;43.600;1.480;2022-07-12T09:56:52;5.97;;;1.58;;
14923;SDS011;7554;43.600;1.480;2022-07-12T09:59:22;7.35;;;1.48;;
14923;SDS011;7554;43.600;1.480;2022-07-12T10:01:50;2.25;;;1.33;;
14923;SDS011;7554;43.600;1.480;2022-07-12T10:04:22;5.63;;;1.88;;
14923;SDS011;7554;43.600;1.480;2022-07-12T10:06:50;4.30;;;1.50;;
14923;SDS011;7554;43.600;1.480;2022-07-12T10:09:17;2.92;;;1.50;;
14923;SDS011;7554;43.600;1.480;2022-07-12T10:11:46;3.28;;;1.20;;
14923;SDS011;7554;43.600;1.480;2022-07-12T10:14:15;2.22;;;1.35;;
14923;SDS011;7554;43.600;1.480;2022-07-12T10:16:43;3.80;;;1.70;;
14923;SDS011;7554;43.600;1.480;2022-07-12T10:19:23;4.93;;;1.60;;
14923;SDS011;7554;43.600;1.480;2022-07-12T10:21:51;4.10;;;1.63;;
14923;SDS011;7554;43.600;1.480;2022-07-12T10:27:27;7.80;;;1.80;;
14923;SDS011;7554;43.600;1.480;2022-07-12T10:30:12;4.68;;;1.75;;
14923;SDS011;7554;43.600;1.480;2022-07-12T10:32:41;5.72;;;1.60;;
14923;SDS011;7554;43.600;1.480;2022-07-12T10:35:15;2.17;;;1.35;;
14923;SDS011;7554;43.600;1.480;2022-07-12T10:40:47;3.70;;;1.55;;
14923;SDS011;7554;43.600;1.480;2022-07-12T10:43:22;2.28;;;1.75;;
14923;SDS011;7554;43.600;1.480;2022-07-12T10:46:05;4.45;;;2.00;;
14923;SDS011;7554;43.600;1.480;2022-07-12T10:48:44;5.40;;;1.60;;
14923;SDS011;7554;43.600;1.480;2022-07-12T10:51:14;4.93;;;1.75;;
14923;SDS011;7554;43.600;1.480;2022-07-12T10:53:44;4.70;;;1.40;;
14923;SDS011;7554;43.600;1.480;2022-07-12T10:56:17;2.17;;;1.52;;
14923;SDS011;7554;43.600;1.480;2022-07-12T10:58:47;2.35;;;1.80;;
14923;SDS011;7554;43.600;1.480;2022-07-12T11:01:18;5.95;;;2.08;;
14923;SDS011;7554;43.600;1.480;2022-07-12T11:03:47;3.05;;;1.80;;
14923;SDS011;7554;43.600;1.480;2022-07-12T11:06:17;3.25;;;1.65;;
14923;SDS011;7554;43.600;1.480;2022-07-12T11:08:46;3.83;;;1.80;;
14923;SDS011;7554;43.600;1.480;2022-07-12T11:11:18;2.85;;;1.60;;
14923;SDS011;7554;43.600;1.480;2022-07-12T11:13:47;2.80;;;1.75;;
14923;SDS011;7554;43.600;1.480;2022-07-12T11:16:14;2.08;;;1.50;;
14923;SDS011;7554;43.600;1.480;2022-07-12T11:18:42;2.88;;;1.60;;
14923;SDS011;7554;43.600;1.480;2022-07-12T11:21:10;3.88;;;1.77;;
14923;SDS011;7554;43.600;1.480;2022-07-12T11:23:39;5.45;;;1.70;;
14923;SDS011;7554;43.600;1.480;2022-07-12T11:26:07;3.67;;;1.65;;
14923;SDS011;7554;43.600;1.480;2022-07-12T11:28:36;1.83;;;1.73;;
14923;SDS011;7554;43.600;1.480;2022-07-12T11:31:05;2.35;;;1.63;;
14923;SDS011;7554;43.600;1.480;2022-07-12T11:33:35;2.75;;;1.60;;
14923;SDS011;7554;43.600;1.480;2022-07-12T11:36:03;2.53;;;1.60;;
14923;SDS011;7554;43.600;1.480;2022-07-12T11:38:32;2.80;;;1.75;;
14923;SDS011;7554;43.600;1.480;2022-07-12T11:41:02;2.40;;;1.52;;
14923;SDS011;7554;43.600;1.480;2022-07-12T11:43:31;2.22;;;1.67;;
14923;SDS011;7554;43.600;1.480;2022-07-12T11:45:59;2.47;;;1.90;;
14923;SDS011;7554;43.600;1.480;2022-07-12T11:48:27;3.42;;;1.60;;
14923;SDS011;7554;43.600;1.480;2022-07-12T11:50:59;2.65;;;1.75;;
14923;SDS011;7554;43.600;1.480;2022-07-12T11:53:29;2.53;;;1.67;;
14923;SDS011;7554;43.600;1.480;2022-07-12T11:56:00;2.88;;;1.70;;
14923;SDS011;7554;43.600;1.480;2022-07-12T11:58:30;4.32;;;1.92;;
14923;SDS011;7554;43.600;1.480;2022-07-12T12:00:59;4.50;;;1.73;;
14923;SDS011;7554;43.600;1.480;2022-07-12T12:03:27;1.92;;;1.58;;
14923;SDS011;7554;43.600;1.480;2022-07-12T12:05:57;4.90;;;1.70;;
14923;SDS011;7554;43.600;1.480;2022-07-12T12:08:24;2.20;;;1.45;;
14923;SDS011;7554;43.600;1.480;2022-07-12T12:10:52;1.83;;;1.33;;
14923;SDS011;7554;43.600;1.480;2022-07-12T12:13:24;2.58;;;1.75;;
14923;SDS011;7554;43.600;1.480;2022-07-12T12:15:57;5.85;;;1.60;;
14923;SDS011;7554;43.600;1.480;2022-07-12T12:18:27;2.67;;;1.42;;
14923;SDS011;7554;43.600;1.480;2022-07-12T12:20:56;4.07;;;1.70;;
14923;SDS011;7554;43.600;1.480;2022-07-12T12:23:25;5.57;;;1.75;;
14923;SDS011;7554;43.600;1.480;2022-07-12T12:25:54;3.35;;;1.70;;
14923;SDS011;7554;43.600;1.480;2022-07-12T12:28:45;6.35;;;1.70;;
14923;SDS011;7554;43.600;1.480;2022-07-12T12:31:14;2.10;;;1.40;;
14923;SDS011;7554;43.600;1.480;2022-07-12T12:33:42;5.43;;;1.42;;
14923;SDS011;7554;43.600;1.480;2022-07-12T12:36:15;5.28;;;1.67;;
14923;SDS011;7554;43.600;1.480;2022-07-12T12:38:47;5.72;;;1.75;;
14923;SDS011;7554;43.600;1.480;2022-07-12T12:41:15;4.88;;;1.75;;
14923;SDS011;7554;43.600;1.480;2022-07-12T12:43:46;2.17;;;1.50;;
14923;SDS011;7554;43.600;1.480;2022-07-12T12:46:13;3.47;;;1.55;;
14923;SDS011;7554;43.600;1.480;2022-07-12T12:48:45;3.42;;;1.50;;
14923;SDS011;7554;43.600;1.480;2022-07-12T12:51:14;3.97;;;1.58;;
14923;SDS011;7554;43.600;1.480;2022-07-12T12:53:42;3.30;;;1.95;;
14923;SDS011;7554;43.600;1.480;2022-07-12T12:56:10;4.80;;;1.65;;
14923;SDS011;7554;43.600;1.480;2022-07-12T12:58:39;4.82;;;1.80;;
14923;SDS011;7554;43.600;1.480;2022-07-12T13:01:08;2.72;;;1.60;;
14923;SDS011;7554;43.600;1.480;2022-07-12T13:03:36;6.47;;;1.88;;
14923;SDS011;7554;43.600;1.480;2022-07-12T13:06:03;4.05;;;1.90;;
14923;SDS011;7554;43.600;1.480;2022-07-12T13:08:31;6.05;;;1.63;;
14923;SDS011;7554;43.600;1.480;2022-07-12T13:10:59;5.03;;;1.80;;
14923;SDS011;7554;43.600;1.480;2022-07-12T13:13:45;1.50;;;1.40;;
14923;SDS011;7554;43.600;1.480;2022-07-12T13:16:13;2.55;;;1.58;;
14923;SDS011;7554;43.600;1.480;2022-07-12T13:18:41;2.60;;;1.35;;
14923;SDS011;7554;43.600;1.480;2022-07-12T13:21:08;2.47;;;1.50;;
14923;SDS011;7554;43.600;1.480;2022-07-12T13:23:35;3.85;;;1.40;;
14923;SDS011;7554;43.600;1.480;2022-07-12T13:26:03;1.92;;;1.35;;
14923;SDS011;7554;43.600;1.480;2022-07-12T13:28:30;3.20;;;1.45;;
14923;SDS011;7554;43.600;1.480;2022-07-12T13:30:58;3.75;;;1.13;;
14923;SDS011;7554;43.600;1.480;2022-07-12T13:33:27;2.63;;;1.30;;
14923;SDS011;7554;43.600;1.480;2022-07-12T13:35:54;3.40;;;1.23;;
14923;SDS011;7554;43.600;1.480;2022-07-12T13:38:23;1.40;;;1.30;;
14923;SDS011;7554;43.600;1.480;2022-07-12T13:40:51;4.55;;;1.65;;
14923;SDS011;7554;43.600;1.480;2022-07-12T13:43:19;2.70;;;1.52;;
14923;SDS011;7554;43.600;1.480;2022-07-12T13:45:46;4.28;;;1.40;;
14923;SDS011;7554;43.600;1.480;2022-07-12T13:48:16;2.55;;;1.60;;
14923;SDS011;7554;43.600;1.480;2022-07-12T13:50:45;4.15;;;1.80;;
14923;SDS011;7554;43.600;1.480;2022-07-12T13:53:13;3.10;;;1.70;;
14923;SDS011;7554;43.600;1.480;2022-07-12T13:55:41;3.58;;;1.50;;
14923;SDS011;7554;43.600;1.480;2022-07-12T13:58:09;3.78;;;1.42;;
14923;SDS011;7554;43.600;1.480;2022-07-12T14:00:37;2.30;;;1.33;;
14923;SDS011;7554;43.600;1.480;2022-07-12T14:03:05;2.45;;;1.30;;
14923;SDS011;7554;43.600;1.480;2022-07-12T14:05:33;2.55;;;1.50;;
14923;SDS011;7554;43.600;1.480;2022-07-12T14:08:02;3.97;;;1.20;;
14923;SDS011;7554;43.600;1.480;2022-07-12T14:10:29;2.05;;;1.00;;
14923;SDS011;7554;43.600;1.480;2022-07-12T14:12:58;3.20;;;1.15;;
14923;SDS011;7554;43.600;1.480;2022-07-12T14:15:26;1.98;;;1.05;;
14923;SDS011;7554;43.600;1.480;2022-07-12T14:18:03;3.13;;;1.15;;
14923;SDS011;7554;43.600;1.480;2022-07-12T14:20:31;1.50;;;1.10;;
14923;SDS011;7554;43.600;1.480;2022-07-12T14:23:01;3.05;;;1.10;;
14923;SDS011;7554;43.600;1.480;2022-07-12T14:25:31;6.95;;;1.20;;
14923;SDS011;7554;43.600;1.480;2022-07-12T14:27:59;4.47;;;1.40;;
14923;SDS011;7554;43.600;1.480;2022-07-12T14:30:26;3.28;;;1.38;;
14923;SDS011;7554;43.600;1.480;2022-07-12T14:32:54;3.80;;;1.33;;
14923;SDS011;7554;43.600;1.480;2022-07-12T14:35:21;4.32;;;1.33;;
14923;SDS011;7554;43.600;1.480;2022-07-12T14:37:48;2.28;;;1.30;;
14923;SDS011;7554;43.600;1.480;2022-07-12T14:40:17;2.70;;;1.60;;
14923;SDS011;7554;43.600;1.480;2022-07-12T14:42:45;5.13;;;1.48;;
14923;SDS011;7554;43.600;1.480;2022-07-12T14:45:12;5.25;;;1.55;;
14923;SDS011;7554;43.600;1.480;2022-07-12T14:47:40;1.77;;;1.27;;
14923;SDS011;7554;43.600;1.480;2022-07-12T14:50:08;3.97;;;1.30;;
14923;SDS011;7554;43.600;1.480;2022-07-12T14:52:36;3.97;;;1.40;;
14923;SDS011;7554;43.600;1.480;2022-07-12T14:55:04;1.55;;;1.20;;
14923;SDS011;7554;43.600;1.480;2022-07-12T14:57:33;5.93;;;1.25;;
14923;SDS011;7554;43.600;1.480;2022-07-12T15:00:00;1.20;;;1.10;;
14923;SDS011;7554;43.600;1.480;2022-07-12T15:02:28;1.73;;;1.38;;
14923;SDS011;7554;43.600;1.480;2022-07-12T15:04:55;4.60;;;1.00;;
14923;SDS011;7554;43.600;1.480;2022-07-12T15:07:22;2.90;;;1.20;;
14923;SDS011;7554;43.600;1.480;2022-07-12T15:09:50;2.25;;;1.10;;
14923;SDS011;7554;43.600;1.480;2022-07-12T15:12:17;3.60;;;1.20;;
14923;SDS011;7554;43.600;1.480;2022-07-12T15:14:46;3.58;;;1.10;;
14923;SDS011;7554;43.600;1.480;2022-07-12T15:17:14;10.52;;;1.30;;
14923;SDS011;7554;43.600;1.480;2022-07-12T15:19:44;3.67;;;1.23;;
14923;SDS011;7554;43.600;1.480;2022-07-12T15:22:11;1.85;;;1.10;;